Christchurch, United Kingdom
Current Conditions -  °F | °C
As of 5:50 AM on Monday 20 Oct 2014 (Local Time) from EGHH Reporting Station
Scattered Clouds Scattered Clouds  
Wind Chill: 12°   Ceiling: Unl
Heat Index: 12°   Visibility: 6mi
Dew Point: 11°   Wind: 8mph
Humidity: 94%   Direction: 260°W
Pressure: 30.03"   Gusts: NA
Location:  50.77°N, 1.78°W
Report Text: EGHH 200450Z 26007KT 9999 SCT032 12/11 Q1017
Loading
Personal Weather Stations






























Interactive Weather Map
Tropical Storm Tracking
New forecast layout! Learn more

10-Day Weather Forecast

Advertisements
Track Severe Weather on mobile